sensor_id;sensor_type;location;lat;lon;timestamp;P1;durP1;ratioP1;P2;durP2;ratioP2
7501;SDS011;3792;47.740;7.606;2022-08-01T00:00:23;1.73;;;1.57;;
7501;SDS011;3792;47.740;7.606;2022-08-01T00:02:50;1.57;;;1.50;;
7501;SDS011;3792;47.740;7.606;2022-08-01T00:05:17;1.87;;;1.50;;
7501;SDS011;3792;47.740;7.606;2022-08-01T00:07:46;2.30;;;1.80;;
7501;SDS011;3792;47.740;7.606;2022-08-01T00:10:13;2.00;;;1.90;;
7501;SDS011;3792;47.740;7.606;2022-08-01T00:12:41;1.70;;;1.60;;
7501;SDS011;3792;47.740;7.606;2022-08-01T00:15:10;6.87;;;2.07;;
7501;SDS011;3792;47.740;7.606;2022-08-01T00:17:39;2.00;;;1.57;;
7501;SDS011;3792;47.740;7.606;2022-08-01T00:20:07;1.83;;;1.70;;
7501;SDS011;3792;47.740;7.606;2022-08-01T00:22:36;1.90;;;1.80;;
7501;SDS011;3792;47.740;7.606;2022-08-01T00:25:05;2.20;;;1.73;;
7501;SDS011;3792;47.740;7.606;2022-08-01T00:27:33;1.87;;;1.73;;
7501;SDS011;3792;47.740;7.606;2022-08-01T00:30:00;2.60;;;1.70;;
7501;SDS011;3792;47.740;7.606;2022-08-01T00:32:27;1.70;;;1.60;;
7501;SDS011;3792;47.740;7.606;2022-08-01T00:34:56;1.97;;;1.67;;
7501;SDS011;3792;47.740;7.606;2022-08-01T00:37:23;3.20;;;1.90;;
7501;SDS011;3792;47.740;7.606;2022-08-01T00:39:50;2.40;;;1.73;;
7501;SDS011;3792;47.740;7.606;2022-08-01T00:42:22;2.10;;;1.80;;
7501;SDS011;3792;47.740;7.606;2022-08-01T00:44:49;3.97;;;1.80;;
7501;SDS011;3792;47.740;7.606;2022-08-01T00:47:16;1.67;;;1.57;;
7501;SDS011;3792;47.740;7.606;2022-08-01T00:49:43;1.80;;;1.70;;
7501;SDS011;3792;47.740;7.606;2022-08-01T00:52:10;2.87;;;1.93;;
7501;SDS011;3792;47.740;7.606;2022-08-01T00:54:37;4.17;;;1.80;;
7501;SDS011;3792;47.740;7.606;2022-08-01T00:57:06;2.37;;;2.17;;
7501;SDS011;3792;47.740;7.606;2022-08-01T00:59:34;2.17;;;2.07;;
7501;SDS011;3792;47.740;7.606;2022-08-01T01:02:02;1.97;;;1.70;;
7501;SDS011;3792;47.740;7.606;2022-08-01T01:04:29;2.73;;;1.80;;
7501;SDS011;3792;47.740;7.606;2022-08-01T01:06:57;3.23;;;1.50;;
7501;SDS011;3792;47.740;7.606;2022-08-01T01:09:33;2.93;;;2.00;;
7501;SDS011;3792;47.740;7.606;2022-08-01T01:12:09;2.13;;;1.93;;
7501;SDS011;3792;47.740;7.606;2022-08-01T01:14:45;2.43;;;1.70;;
7501;SDS011;3792;47.740;7.606;2022-08-01T01:17:23;2.53;;;1.97;;
7501;SDS011;3792;47.740;7.606;2022-08-01T01:19:55;2.37;;;2.13;;
7501;SDS011;3792;47.740;7.606;2022-08-01T01:22:30;1.83;;;1.73;;
7501;SDS011;3792;47.740;7.606;2022-08-01T01:25:09;2.10;;;1.70;;
7501;SDS011;3792;47.740;7.606;2022-08-01T01:27:48;1.93;;;1.83;;
7501;SDS011;3792;47.740;7.606;2022-08-01T01:30:21;2.03;;;1.80;;
7501;SDS011;3792;47.740;7.606;2022-08-01T01:32:50;2.30;;;2.10;;
7501;SDS011;3792;47.740;7.606;2022-08-01T01:35:20;2.13;;;2.00;;
7501;SDS011;3792;47.740;7.606;2022-08-01T01:37:51;3.47;;;1.80;;
7501;SDS011;3792;47.740;7.606;2022-08-01T01:40:23;2.63;;;2.30;;
7501;SDS011;3792;47.740;7.606;2022-08-01T01:42:51;2.07;;;1.97;;
7501;SDS011;3792;47.740;7.606;2022-08-01T01:45:24;3.53;;;1.90;;
7501;SDS011;3792;47.740;7.606;2022-08-01T01:47:51;2.03;;;1.83;;
7501;SDS011;3792;47.740;7.606;2022-08-01T01:50:20;1.80;;;1.70;;
7501;SDS011;3792;47.740;7.606;2022-08-01T01:52:48;2.47;;;1.90;;
7501;SDS011;3792;47.740;7.606;2022-08-01T01:55:17;2.10;;;2.00;;
7501;SDS011;3792;47.740;7.606;2022-08-01T01:57:48;4.03;;;1.97;;
7501;SDS011;3792;47.740;7.606;2022-08-01T02:00:17;4.13;;;1.93;;
7501;SDS011;3792;47.740;7.606;2022-08-01T02:02:46;2.30;;;2.10;;
7501;SDS011;3792;47.740;7.606;2022-08-01T02:05:16;2.30;;;2.10;;
7501;SDS011;3792;47.740;7.606;2022-08-01T02:07:44;3.30;;;2.27;;
7501;SDS011;3792;47.740;7.606;2022-08-01T02:10:14;3.07;;;2.30;;
7501;SDS011;3792;47.740;7.606;2022-08-01T02:12:43;3.23;;;2.50;;
7501;SDS011;3792;47.740;7.606;2022-08-01T02:15:12;3.40;;;2.47;;
7501;SDS011;3792;47.740;7.606;2022-08-01T02:17:41;2.70;;;2.50;;
7501;SDS011;3792;47.740;7.606;2022-08-01T02:20:13;3.13;;;2.40;;
7501;SDS011;3792;47.740;7.606;2022-08-01T02:22:42;2.47;;;2.30;;
7501;SDS011;3792;47.740;7.606;2022-08-01T02:25:15;2.83;;;2.37;;
7501;SDS011;3792;47.740;7.606;2022-08-01T02:27:48;2.87;;;2.60;;
7501;SDS011;3792;47.740;7.606;2022-08-01T02:30:20;2.60;;;2.43;;
7501;SDS011;3792;47.740;7.606;2022-08-01T02:32:51;3.20;;;2.70;;
7501;SDS011;3792;47.740;7.606;2022-08-01T02:35:25;3.40;;;2.90;;
7501;SDS011;3792;47.740;7.606;2022-08-01T02:37:55;2.93;;;2.73;;
7501;SDS011;3792;47.740;7.606;2022-08-01T02:40:24;2.63;;;2.53;;
7501;SDS011;3792;47.740;7.606;2022-08-01T02:42:54;3.40;;;2.90;;
7501;SDS011;3792;47.740;7.606;2022-08-01T02:45:24;2.80;;;2.60;;
7501;SDS011;3792;47.740;7.606;2022-08-01T02:47:53;4.07;;;2.93;;
7501;SDS011;3792;47.740;7.606;2022-08-01T02:50:26;3.97;;;3.30;;
7501;SDS011;3792;47.740;7.606;2022-08-01T02:52:56;3.50;;;3.20;;
7501;SDS011;3792;47.740;7.606;2022-08-01T02:55:24;3.93;;;3.27;;
7501;SDS011;3792;47.740;7.606;2022-08-01T02:57:52;3.77;;;3.47;;
7501;SDS011;3792;47.740;7.606;2022-08-01T03:00:21;3.90;;;2.87;;
7501;SDS011;3792;47.740;7.606;2022-08-01T03:02:49;3.20;;;2.90;;
7501;SDS011;3792;47.740;7.606;2022-08-01T03:05:20;3.80;;;3.27;;
7501;SDS011;3792;47.740;7.606;2022-08-01T03:07:48;2.70;;;2.50;;
7501;SDS011;3792;47.740;7.606;2022-08-01T03:10:17;2.93;;;2.60;;
7501;SDS011;3792;47.740;7.606;2022-08-01T03:12:44;3.57;;;3.23;;
7501;SDS011;3792;47.740;7.606;2022-08-01T03:15:13;3.80;;;3.50;;
7501;SDS011;3792;47.740;7.606;2022-08-01T03:17:41;3.40;;;3.00;;
7501;SDS011;3792;47.740;7.606;2022-08-01T03:20:10;2.80;;;2.60;;
7501;SDS011;3792;47.740;7.606;2022-08-01T03:22:40;3.13;;;2.90;;
7501;SDS011;3792;47.740;7.606;2022-08-01T03:25:11;3.10;;;2.90;;
7501;SDS011;3792;47.740;7.606;2022-08-01T03:27:39;3.30;;;3.03;;
7501;SDS011;3792;47.740;7.606;2022-08-01T03:30:08;3.60;;;3.30;;
7501;SDS011;3792;47.740;7.606;2022-08-01T03:32:36;3.73;;;3.30;;
7501;SDS011;3792;47.740;7.606;2022-08-01T03:35:04;3.20;;;3.00;;
7501;SDS011;3792;47.740;7.606;2022-08-01T03:37:33;3.80;;;3.50;;
7501;SDS011;3792;47.740;7.606;2022-08-01T03:40:06;4.03;;;3.67;;
7501;SDS011;3792;47.740;7.606;2022-08-01T03:42:39;4.60;;;3.70;;
7501;SDS011;3792;47.740;7.606;2022-08-01T03:45:14;3.90;;;3.53;;
7501;SDS011;3792;47.740;7.606;2022-08-01T03:47:45;3.80;;;3.50;;
7501;SDS011;3792;47.740;7.606;2022-08-01T03:50:15;3.83;;;3.53;;
7501;SDS011;3792;47.740;7.606;2022-08-01T03:52:43;4.00;;;3.70;;
7501;SDS011;3792;47.740;7.606;2022-08-01T03:55:12;4.20;;;3.80;;
7501;SDS011;3792;47.740;7.606;2022-08-01T03:57:44;3.33;;;3.13;;
7501;SDS011;3792;47.740;7.606;2022-08-01T04:00:13;6.00;;;3.70;;
7501;SDS011;3792;47.740;7.606;2022-08-01T04:02:43;4.07;;;3.67;;
7501;SDS011;3792;47.740;7.606;2022-08-01T04:05:12;3.80;;;3.50;;
7501;SDS011;3792;47.740;7.606;2022-08-01T04:07:40;4.27;;;3.90;;
7501;SDS011;3792;47.740;7.606;2022-08-01T04:10:11;3.50;;;3.20;;
7501;SDS011;3792;47.740;7.606;2022-08-01T04:12:38;4.00;;;3.60;;
7501;SDS011;3792;47.740;7.606;2022-08-01T04:15:07;3.93;;;3.53;;
7501;SDS011;3792;47.740;7.606;2022-08-01T04:17:35;4.27;;;3.87;;
7501;SDS011;3792;47.740;7.606;2022-08-01T04:20:02;4.53;;;3.67;;
7501;SDS011;3792;47.740;7.606;2022-08-01T04:22:29;3.23;;;3.03;;
7501;SDS011;3792;47.740;7.606;2022-08-01T04:24:57;3.70;;;3.40;;
7501;SDS011;3792;47.740;7.606;2022-08-01T04:27:27;4.00;;;3.70;;
7501;SDS011;3792;47.740;7.606;2022-08-01T04:29:57;4.20;;;3.83;;
7501;SDS011;3792;47.740;7.606;2022-08-01T04:32:27;4.60;;;3.73;;
7501;SDS011;3792;47.740;7.606;2022-08-01T04:34:59;3.60;;;3.30;;
7501;SDS011;3792;47.740;7.606;2022-08-01T04:37:31;4.27;;;3.87;;
7501;SDS011;3792;47.740;7.606;2022-08-01T04:40:02;3.90;;;3.50;;
7501;SDS011;3792;47.740;7.606;2022-08-01T04:42:30;4.60;;;4.17;;
7501;SDS011;3792;47.740;7.606;2022-08-01T04:44:57;4.20;;;3.90;;
7501;SDS011;3792;47.740;7.606;2022-08-01T04:47:25;5.33;;;4.27;;
7501;SDS011;3792;47.740;7.606;2022-08-01T04:49:54;4.43;;;4.03;;
7501;SDS011;3792;47.740;7.606;2022-08-01T04:52:22;4.43;;;4.10;;
7501;SDS011;3792;47.740;7.606;2022-08-01T04:54:58;4.60;;;4.00;;
7501;SDS011;3792;47.740;7.606;2022-08-01T04:57:25;4.60;;;3.90;;
7501;SDS011;3792;47.740;7.606;2022-08-01T04:59:52;4.43;;;4.03;;
7501;SDS011;3792;47.740;7.606;2022-08-01T05:02:22;3.93;;;3.63;;
7501;SDS011;3792;47.740;7.606;2022-08-01T05:04:49;4.07;;;3.77;;
7501;SDS011;3792;47.740;7.606;2022-08-01T05:07:17;4.73;;;4.27;;
7501;SDS011;3792;47.740;7.606;2022-08-01T05:09:44;4.50;;;4.10;;
7501;SDS011;3792;47.740;7.606;2022-08-01T05:12:12;5.83;;;4.07;;
7501;SDS011;3792;47.740;7.606;2022-08-01T05:14:39;4.40;;;4.00;;
7501;SDS011;3792;47.740;7.606;2022-08-01T05:17:07;4.67;;;4.27;;
7501;SDS011;3792;47.740;7.606;2022-08-01T05:19:35;4.13;;;3.80;;
7501;SDS011;3792;47.740;7.606;2022-08-01T05:22:04;4.23;;;3.93;;
7501;SDS011;3792;47.740;7.606;2022-08-01T05:24:35;4.03;;;3.73;;
7501;SDS011;3792;47.740;7.606;2022-08-01T05:27:03;4.80;;;4.40;;
7501;SDS011;3792;47.740;7.606;2022-08-01T05:29:31;5.03;;;4.10;;
7501;SDS011;3792;47.740;7.606;2022-08-01T05:31:58;4.47;;;4.07;;
7501;SDS011;3792;47.740;7.606;2022-08-01T05:34:26;4.33;;;4.03;;
7501;SDS011;3792;47.740;7.606;2022-08-01T05:36:53;4.73;;;4.33;;
7501;SDS011;3792;47.740;7.606;2022-08-01T05:39:20;4.63;;;4.20;;
7501;SDS011;3792;47.740;7.606;2022-08-01T05:41:49;5.87;;;3.90;;
7501;SDS011;3792;47.740;7.606;2022-08-01T05:44:16;4.10;;;3.80;;
7501;SDS011;3792;47.740;7.606;2022-08-01T05:46:43;4.40;;;4.00;;
7501;SDS011;3792;47.740;7.606;2022-08-01T05:49:11;4.20;;;3.80;;
7501;SDS011;3792;47.740;7.606;2022-08-01T05:51:38;4.57;;;4.17;;
7501;SDS011;3792;47.740;7.606;2022-08-01T05:54:05;4.23;;;3.83;;
7501;SDS011;3792;47.740;7.606;2022-08-01T05:56:32;4.37;;;3.97;;
7501;SDS011;3792;47.740;7.606;2022-08-01T05:59:01;4.67;;;3.97;;
7501;SDS011;3792;47.740;7.606;2022-08-01T06:01:29;4.90;;;4.30;;
7501;SDS011;3792;47.740;7.606;2022-08-01T06:03:56;5.43;;;4.13;;
7501;SDS011;3792;47.740;7.606;2022-08-01T06:06:23;4.37;;;3.97;;
7501;SDS011;3792;47.740;7.606;2022-08-01T06:08:50;3.70;;;3.50;;
7501;SDS011;3792;47.740;7.606;2022-08-01T06:11:17;4.53;;;3.60;;
7501;SDS011;3792;47.740;7.606;2022-08-01T06:13:45;3.60;;;3.30;;
7501;SDS011;3792;47.740;7.606;2022-08-01T06:16:13;3.93;;;3.33;;
7501;SDS011;3792;47.740;7.606;2022-08-01T06:18:40;3.60;;;3.30;;
7501;SDS011;3792;47.740;7.606;2022-08-01T06:21:07;5.80;;;3.53;;
7501;SDS011;3792;47.740;7.606;2022-08-01T06:23:34;4.30;;;3.67;;
7501;SDS011;3792;47.740;7.606;2022-08-01T06:26:02;3.40;;;3.20;;
7501;SDS011;3792;47.740;7.606;2022-08-01T06:28:29;3.47;;;3.17;;
7501;SDS011;3792;47.740;7.606;2022-08-01T06:30:56;3.23;;;3.03;;
7501;SDS011;3792;47.740;7.606;2022-08-01T06:33:26;7.77;;;3.83;;
7501;SDS011;3792;47.740;7.606;2022-08-01T06:35:53;3.90;;;3.60;;
7501;SDS011;3792;47.740;7.606;2022-08-01T06:38:20;3.90;;;3.60;;
7501;SDS011;3792;47.740;7.606;2022-08-01T06:40:49;3.57;;;3.27;;
7501;SDS011;3792;47.740;7.606;2022-08-01T06:43:16;4.07;;;3.33;;
7501;SDS011;3792;47.740;7.606;2022-08-01T06:45:44;3.53;;;3.23;;
7501;SDS011;3792;47.740;7.606;2022-08-01T06:48:11;3.37;;;3.07;;
7501;SDS011;3792;47.740;7.606;2022-08-01T06:50:39;4.37;;;3.10;;
7501;SDS011;3792;47.740;7.606;2022-08-01T06:53:07;4.43;;;3.30;;
7501;SDS011;3792;47.740;7.606;2022-08-01T06:55:34;3.63;;;3.33;;
7501;SDS011;3792;47.740;7.606;2022-08-01T06:58:01;4.23;;;3.13;;
7501;SDS011;3792;47.740;7.606;2022-08-01T07:00:28;4.57;;;3.43;;
7501;SDS011;3792;47.740;7.606;2022-08-01T07:02:56;4.87;;;3.37;;
7501;SDS011;3792;47.740;7.606;2022-08-01T07:05:24;4.47;;;3.70;;
7501;SDS011;3792;47.740;7.606;2022-08-01T07:07:54;3.80;;;3.40;;
7501;SDS011;3792;47.740;7.606;2022-08-01T07:10:21;4.10;;;3.30;;
7501;SDS011;3792;47.740;7.606;2022-08-01T07:12:48;3.97;;;3.57;;
7501;SDS011;3792;47.740;7.606;2022-08-01T07:15:15;3.60;;;3.30;;
7501;SDS011;3792;47.740;7.606;2022-08-01T07:17:43;4.00;;;3.60;;
7501;SDS011;3792;47.740;7.606;2022-08-01T07:20:11;4.47;;;3.50;;
7501;SDS011;3792;47.740;7.606;2022-08-01T07:22:39;4.07;;;3.23;;
7501;SDS011;3792;47.740;7.606;2022-08-01T07:25:07;2.90;;;2.70;;
7501;SDS011;3792;47.740;7.606;2022-08-01T07:27:35;3.60;;;3.30;;
7501;SDS011;3792;47.740;7.606;2022-08-01T07:30:03;3.57;;;3.20;;
7501;SDS011;3792;47.740;7.606;2022-08-01T07:32:30;3.37;;;3.10;;
7501;SDS011;3792;47.740;7.606;2022-08-01T07:34:58;4.20;;;3.23;;
7501;SDS011;3792;47.740;7.606;2022-08-01T07:37:25;3.37;;;3.07;;
7501;SDS011;3792;47.740;7.606;2022-08-01T07:39:53;3.50;;;3.30;;
7501;SDS011;3792;47.740;7.606;2022-08-01T07:42:21;3.53;;;3.10;;
7501;SDS011;3792;47.740;7.606;2022-08-01T07:44:48;3.73;;;3.43;;
7501;SDS011;3792;47.740;7.606;2022-08-01T07:47:16;3.77;;;3.47;;
7501;SDS011;3792;47.740;7.606;2022-08-01T07:49:49;3.67;;;3.13;;
7501;SDS011;3792;47.740;7.606;2022-08-01T07:52:16;2.97;;;2.77;;
7501;SDS011;3792;47.740;7.606;2022-08-01T07:54:43;3.20;;;2.90;;
7501;SDS011;3792;47.740;7.606;2022-08-01T07:57:13;3.53;;;3.20;;
7501;SDS011;3792;47.740;7.606;2022-08-01T07:59:41;3.03;;;2.67;;
7501;SDS011;3792;47.740;7.606;2022-08-01T08:02:08;3.00;;;2.70;;
7501;SDS011;3792;47.740;7.606;2022-08-01T08:04:35;3.60;;;3.30;;
7501;SDS011;3792;47.740;7.606;2022-08-01T08:07:02;4.60;;;3.20;;
7501;SDS011;3792;47.740;7.606;2022-08-01T08:09:29;2.93;;;2.73;;
7501;SDS011;3792;47.740;7.606;2022-08-01T08:11:57;5.03;;;3.00;;
7501;SDS011;3792;47.740;7.606;2022-08-01T08:14:24;3.20;;;2.90;;
7501;SDS011;3792;47.740;7.606;2022-08-01T08:16:52;2.77;;;2.60;;
7501;SDS011;3792;47.740;7.606;2022-08-01T08:19:19;3.10;;;2.80;;
7501;SDS011;3792;47.740;7.606;2022-08-01T08:21:46;4.23;;;2.80;;
7501;SDS011;3792;47.740;7.606;2022-08-01T08:24:13;2.90;;;2.70;;
7501;SDS011;3792;47.740;7.606;2022-08-01T08:26:46;4.03;;;3.60;;
7501;SDS011;3792;47.740;7.606;2022-08-01T08:29:14;5.97;;;3.60;;
7501;SDS011;3792;47.740;7.606;2022-08-01T08:31:41;3.17;;;2.87;;
7501;SDS011;3792;47.740;7.606;2022-08-01T08:34:10;4.07;;;3.47;;
7501;SDS011;3792;47.740;7.606;2022-08-01T08:36:37;3.33;;;3.10;;
7501;SDS011;3792;47.740;7.606;2022-08-01T08:39:04;4.70;;;3.30;;
7501;SDS011;3792;47.740;7.606;2022-08-01T08:41:32;3.50;;;3.20;;
7501;SDS011;3792;47.740;7.606;2022-08-01T08:44:00;3.50;;;3.20;;
7501;SDS011;3792;47.740;7.606;2022-08-01T08:46:27;4.13;;;3.50;;
7501;SDS011;3792;47.740;7.606;2022-08-01T08:48:55;3.50;;;2.90;;
7501;SDS011;3792;47.740;7.606;2022-08-01T08:51:25;3.67;;;3.30;;
7501;SDS011;3792;47.740;7.606;2022-08-01T08:53:53;3.67;;;3.03;;
7501;SDS011;3792;47.740;7.606;2022-08-01T08:56:22;3.70;;;3.40;;
7501;SDS011;3792;47.740;7.606;2022-08-01T08:58:51;3.70;;;3.00;;
7501;SDS011;3792;47.740;7.606;2022-08-01T09:01:18;3.33;;;3.13;;
7501;SDS011;3792;47.740;7.606;2022-08-01T09:03:45;3.43;;;3.13;;
7501;SDS011;3792;47.740;7.606;2022-08-01T09:06:13;3.30;;;2.90;;
7501;SDS011;3792;47.740;7.606;2022-08-01T09:08:42;4.00;;;3.20;;
7501;SDS011;3792;47.740;7.606;2022-08-01T09:11:09;3.03;;;2.83;;
7501;SDS011;3792;47.740;7.606;2022-08-01T09:13:36;3.90;;;3.50;;
7501;SDS011;3792;47.740;7.606;2022-08-01T09:16:04;4.83;;;2.87;;
7501;SDS011;3792;47.740;7.606;2022-08-01T09:18:32;3.37;;;3.07;;
7501;SDS011;3792;47.740;7.606;2022-08-01T09:21:11;5.00;;;2.90;;
7501;SDS011;3792;47.740;7.606;2022-08-01T09:23:42;3.83;;;2.50;;
7501;SDS011;3792;47.740;7.606;2022-08-01T09:26:11;4.07;;;3.00;;
7501;SDS011;3792;47.740;7.606;2022-08-01T09:28:39;3.93;;;2.70;;
7501;SDS011;3792;47.740;7.606;2022-08-01T09:31:07;4.77;;;3.03;;
7501;SDS011;3792;47.740;7.606;2022-08-01T09:33:48;4.63;;;2.87;;
7501;SDS011;3792;47.740;7.606;2022-08-01T09:36:17;3.10;;;2.90;;
7501;SDS011;3792;47.740;7.606;2022-08-01T09:38:46;3.43;;;2.60;;
7501;SDS011;3792;47.740;7.606;2022-08-01T09:41:13;3.00;;;2.50;;
7501;SDS011;3792;47.740;7.606;2022-08-01T09:43:41;3.43;;;3.10;;
7501;SDS011;3792;47.740;7.606;2022-08-01T09:46:15;3.73;;;2.57;;
7501;SDS011;3792;47.740;7.606;2022-08-01T09:48:54;2.70;;;2.50;;
7501;SDS011;3792;47.740;7.606;2022-08-01T09:51:27;2.77;;;2.50;;
7501;SDS011;3792;47.740;7.606;2022-08-01T09:53:57;2.93;;;2.57;;
7501;SDS011;3792;47.740;7.606;2022-08-01T09:56:24;5.90;;;2.90;;
7501;SDS011;3792;47.740;7.606;2022-08-01T09:58:52;4.80;;;2.60;;
7501;SDS011;3792;47.740;7.606;2022-08-01T10:01:21;4.10;;;2.60;;
7501;SDS011;3792;47.740;7.606;2022-08-01T10:04:03;3.43;;;2.50;;
7501;SDS011;3792;47.740;7.606;2022-08-01T10:06:34;3.70;;;2.70;;
7501;SDS011;3792;47.740;7.606;2022-08-01T10:09:03;2.57;;;2.37;;
7501;SDS011;3792;47.740;7.606;2022-08-01T10:11:30;5.30;;;2.37;;
7501;SDS011;3792;47.740;7.606;2022-08-01T10:13:59;4.17;;;2.60;;
7501;SDS011;3792;47.740;7.606;2022-08-01T10:16:27;4.07;;;2.10;;
7501;SDS011;3792;47.740;7.606;2022-08-01T10:18:55;3.33;;;2.30;;
7501;SDS011;3792;47.740;7.606;2022-08-01T10:21:23;1.93;;;1.60;;
7501;SDS011;3792;47.740;7.606;2022-08-01T10:23:53;1.70;;;1.60;;
7501;SDS011;3792;47.740;7.606;2022-08-01T10:26:24;2.47;;;1.60;;
7501;SDS011;3792;47.740;7.606;2022-08-01T10:28:53;2.00;;;1.90;;
7501;SDS011;3792;47.740;7.606;2022-08-01T10:31:21;2.87;;;1.90;;
7501;SDS011;3792;47.740;7.606;2022-08-01T10:33:49;2.70;;;1.80;;
7501;SDS011;3792;47.740;7.606;2022-08-01T10:36:17;1.80;;;1.70;;
7501;SDS011;3792;47.740;7.606;2022-08-01T10:38:46;1.90;;;1.80;;
7501;SDS011;3792;47.740;7.606;2022-08-01T10:41:13;1.80;;;1.70;;
7501;SDS011;3792;47.740;7.606;2022-08-01T10:43:43;2.17;;;2.07;;
7501;SDS011;3792;47.740;7.606;2022-08-01T10:46:10;2.07;;;1.90;;
7501;SDS011;3792;47.740;7.606;2022-08-01T10:48:39;1.73;;;1.63;;
7501;SDS011;3792;47.740;7.606;2022-08-01T10:51:11;2.10;;;1.90;;
7501;SDS011;3792;47.740;7.606;2022-08-01T10:53:45;2.00;;;1.90;;
7501;SDS011;3792;47.740;7.606;2022-08-01T10:56:13;2.00;;;1.90;;
7501;SDS011;3792;47.740;7.606;2022-08-01T10:58:43;2.17;;;1.97;;
7501;SDS011;3792;47.740;7.606;2022-08-01T11:01:14;2.20;;;2.00;;
7501;SDS011;3792;47.740;7.606;2022-08-01T11:03:56;2.37;;;2.23;;
7501;SDS011;3792;47.740;7.606;2022-08-01T11:06:25;2.10;;;2.00;;
7501;SDS011;3792;47.740;7.606;2022-08-01T11:09:01;2.00;;;1.90;;
7501;SDS011;3792;47.740;7.606;2022-08-01T11:11:29;2.67;;;1.90;;
7501;SDS011;3792;47.740;7.606;2022-08-01T11:14:04;1.80;;;1.70;;
7501;SDS011;3792;47.740;7.606;2022-08-01T11:16:35;1.90;;;1.80;;
7501;SDS011;3792;47.740;7.606;2022-08-01T11:19:03;2.77;;;1.77;;
7501;SDS011;3792;47.740;7.606;2022-08-01T11:27:24;3.13;;;1.60;;
7501;SDS011;3792;47.740;7.606;2022-08-01T11:32:51;1.80;;;1.70;;
7501;SDS011;3792;47.740;7.606;2022-08-01T11:35:20;1.70;;;1.60;;
7501;SDS011;3792;47.740;7.606;2022-08-01T11:37:48;1.30;;;1.23;;
7501;SDS011;3792;47.740;7.606;2022-08-01T11:40:18;1.87;;;1.70;;
7501;SDS011;3792;47.740;7.606;2022-08-01T11:42:46;1.77;;;1.60;;
7501;SDS011;3792;47.740;7.606;2022-08-01T11:45:14;1.50;;;1.40;;
7501;SDS011;3792;47.740;7.606;2022-08-01T11:47:47;2.37;;;1.30;;
7501;SDS011;3792;47.740;7.606;2022-08-01T11:50:30;1.57;;;1.47;;
7501;SDS011;3792;47.740;7.606;2022-08-01T11:52:59;2.90;;;1.60;;
7501;SDS011;3792;47.740;7.606;2022-08-01T11:55:27;2.97;;;1.80;;
7501;SDS011;3792;47.740;7.606;2022-08-01T11:58:01;1.40;;;1.40;;
7501;SDS011;3792;47.740;7.606;2022-08-01T12:00:29;2.17;;;1.50;;
7501;SDS011;3792;47.740;7.606;2022-08-01T12:02:59;1.70;;;1.60;;
7501;SDS011;3792;47.740;7.606;2022-08-01T12:05:28;1.43;;;1.33;;
7501;SDS011;3792;47.740;7.606;2022-08-01T12:07:58;1.90;;;1.40;;
7501;SDS011;3792;47.740;7.606;2022-08-01T12:10:26;2.20;;;1.40;;
7501;SDS011;3792;47.740;7.606;2022-08-01T12:12:59;2.40;;;1.63;;
7501;SDS011;3792;47.740;7.606;2022-08-01T12:15:29;2.00;;;1.37;;
7501;SDS011;3792;47.740;7.606;2022-08-01T12:17:59;3.37;;;1.50;;
7501;SDS011;3792;47.740;7.606;2022-08-01T12:20:30;3.10;;;1.50;;
7501;SDS011;3792;47.740;7.606;2022-08-01T12:22:58;1.60;;;1.50;;
7501;SDS011;3792;47.740;7.606;2022-08-01T12:25:27;1.40;;;1.40;;
7501;SDS011;3792;47.740;7.606;2022-08-01T12:27:54;2.20;;;1.70;;
7501;SDS011;3792;47.740;7.606;2022-08-01T12:30:25;1.60;;;1.53;;
7501;SDS011;3792;47.740;7.606;2022-08-01T12:32:52;1.60;;;1.50;;
7501;SDS011;3792;47.740;7.606;2022-08-01T12:35:22;1.70;;;1.53;;
7501;SDS011;3792;47.740;7.606;2022-08-01T12:37:51;1.60;;;1.50;;
7501;SDS011;3792;47.740;7.606;2022-08-01T12:40:19;1.70;;;1.60;;
7501;SDS011;3792;47.740;7.606;2022-08-01T12:42:48;1.70;;;1.60;;
7501;SDS011;3792;47.740;7.606;2022-08-01T12:45:18;2.73;;;1.63;;
7501;SDS011;3792;47.740;7.606;2022-08-01T12:47:47;1.70;;;1.60;;
7501;SDS011;3792;47.740;7.606;2022-08-01T12:50:16;1.70;;;1.60;;
7501;SDS011;3792;47.740;7.606;2022-08-01T12:52:47;1.80;;;1.70;;
7501;SDS011;3792;47.740;7.606;2022-08-01T12:55:15;2.43;;;1.90;;
7501;SDS011;3792;47.740;7.606;2022-08-01T12:57:45;1.97;;;1.60;;
7501;SDS011;3792;47.740;7.606;2022-08-01T13:00:16;2.67;;;1.70;;
7501;SDS011;3792;47.740;7.606;2022-08-01T13:02:46;1.60;;;1.50;;
7501;SDS011;3792;47.740;7.606;2022-08-01T13:05:15;1.80;;;1.50;;
7501;SDS011;3792;47.740;7.606;2022-08-01T13:07:48;2.17;;;1.83;;
7501;SDS011;3792;47.740;7.606;2022-08-01T13:10:23;1.80;;;1.70;;
7501;SDS011;3792;47.740;7.606;2022-08-01T13:12:52;2.13;;;1.83;;
7501;SDS011;3792;47.740;7.606;2022-08-01T13:15:22;3.03;;;1.87;;
7501;SDS011;3792;47.740;7.606;2022-08-01T13:17:51;1.80;;;1.70;;
7501;SDS011;3792;47.740;7.606;2022-08-01T13:20:22;1.70;;;1.60;;
7501;SDS011;3792;47.740;7.606;2022-08-01T13:22:52;1.83;;;1.73;;
7501;SDS011;3792;47.740;7.606;2022-08-01T13:25:19;2.00;;;1.90;;
7501;SDS011;3792;47.740;7.606;2022-08-01T13:27:46;2.07;;;1.90;;
7501;SDS011;3792;47.740;7.606;2022-08-01T13:30:13;2.03;;;1.93;;
7501;SDS011;3792;47.740;7.606;2022-08-01T13:32:42;1.83;;;1.70;;
7501;SDS011;3792;47.740;7.606;2022-08-01T13:35:10;3.37;;;1.93;;
7501;SDS011;3792;47.740;7.606;2022-08-01T13:37:39;2.03;;;1.93;;
7501;SDS011;3792;47.740;7.606;2022-08-01T13:40:09;2.00;;;1.80;;
7501;SDS011;3792;47.740;7.606;2022-08-01T13:42:37;2.17;;;1.97;;
7501;SDS011;3792;47.740;7.606;2022-08-01T13:45:05;1.87;;;1.50;;
7501;SDS011;3792;47.740;7.606;2022-08-01T13:47:35;2.80;;;1.70;;
7501;SDS011;3792;47.740;7.606;2022-08-01T13:50:04;2.90;;;1.70;;
7501;SDS011;3792;47.740;7.606;2022-08-01T13:52:31;1.77;;;1.67;;
7501;SDS011;3792;47.740;7.606;2022-08-01T13:54:58;2.10;;;1.90;;
7501;SDS011;3792;47.740;7.606;2022-08-01T13:57:27;1.70;;;1.60;;
7501;SDS011;3792;47.740;7.606;2022-08-01T13:59:54;1.67;;;1.60;;
7501;SDS011;3792;47.740;7.606;2022-08-01T14:02:24;2.10;;;1.83;;
7501;SDS011;3792;47.740;7.606;2022-08-01T14:04:51;2.00;;;1.80;;
7501;SDS011;3792;47.740;7.606;2022-08-01T14:07:19;2.87;;;1.80;;
7501;SDS011;3792;47.740;7.606;2022-08-01T14:09:46;1.80;;;1.70;;
7501;SDS011;3792;47.740;7.606;2022-08-01T14:12:13;1.80;;;1.70;;
7501;SDS011;3792;47.740;7.606;2022-08-01T14:14:42;3.00;;;2.20;;
7501;SDS011;3792;47.740;7.606;2022-08-01T14:17:09;2.03;;;1.83;;
7501;SDS011;3792;47.740;7.606;2022-08-01T14:19:36;2.87;;;1.87;;
7501;SDS011;3792;47.740;7.606;2022-08-01T14:22:03;1.67;;;1.57;;
7501;SDS011;3792;47.740;7.606;2022-08-01T14:24:30;1.90;;;1.80;;
7501;SDS011;3792;47.740;7.606;2022-08-01T14:26:57;2.03;;;1.83;;
7501;SDS011;3792;47.740;7.606;2022-08-01T14:29:24;1.90;;;1.80;;
7501;SDS011;3792;47.740;7.606;2022-08-01T14:31:52;1.80;;;1.70;;
7501;SDS011;3792;47.740;7.606;2022-08-01T14:34:19;2.23;;;1.83;;
7501;SDS011;3792;47.740;7.606;2022-08-01T14:36:46;2.20;;;1.70;;
7501;SDS011;3792;47.740;7.606;2022-08-01T14:39:14;1.70;;;1.43;;
7501;SDS011;3792;47.740;7.606;2022-08-01T14:41:41;3.23;;;1.87;;
7501;SDS011;3792;47.740;7.606;2022-08-01T14:44:08;1.93;;;1.73;;
7501;SDS011;3792;47.740;7.606;2022-08-01T14:46:35;1.50;;;1.50;;
7501;SDS011;3792;47.740;7.606;2022-08-01T14:49:03;2.33;;;1.47;;
7501;SDS011;3792;47.740;7.606;2022-08-01T14:51:30;1.80;;;1.70;;
7501;SDS011;3792;47.740;7.606;2022-08-01T14:53:59;3.03;;;1.90;;
7501;SDS011;3792;47.740;7.606;2022-08-01T14:56:26;1.70;;;1.60;;
7501;SDS011;3792;47.740;7.606;2022-08-01T14:58:53;1.70;;;1.60;;
7501;SDS011;3792;47.740;7.606;2022-08-01T15:01:21;1.80;;;1.70;;
7501;SDS011;3792;47.740;7.606;2022-08-01T15:03:48;1.83;;;1.73;;
7501;SDS011;3792;47.740;7.606;2022-08-01T15:06:17;2.40;;;1.70;;
7501;SDS011;3792;47.740;7.606;2022-08-01T15:08:44;1.90;;;1.80;;
7501;SDS011;3792;47.740;7.606;2022-08-01T15:11:11;1.90;;;1.80;;
7501;SDS011;3792;47.740;7.606;2022-08-01T15:13:38;3.77;;;1.90;;
7501;SDS011;3792;47.740;7.606;2022-08-01T15:16:05;4.23;;;1.80;;
7501;SDS011;3792;47.740;7.606;2022-08-01T15:18:32;2.23;;;1.67;;
7501;SDS011;3792;47.740;7.606;2022-08-01T15:20:59;2.57;;;1.70;;
7501;SDS011;3792;47.740;7.606;2022-08-01T15:23:28;2.03;;;1.87;;
7501;SDS011;3792;47.740;7.606;2022-08-01T15:25:55;2.20;;;2.00;;
7501;SDS011;3792;47.740;7.606;2022-08-01T15:28:22;2.50;;;2.40;;
7501;SDS011;3792;47.740;7.606;2022-08-01T15:30:49;2.70;;;2.50;;
7501;SDS011;3792;47.740;7.606;2022-08-01T15:33:16;3.00;;;2.70;;